• Join FlightAware (Why Join?)
  • Login
  • US Flag 
07:33AM EDT


 

Airport Tracker/Info


-or-


 

Live Flight TrackerFlight Track Log ✈ C-GRJR ✈ 09-Apr-2014 ✈ KAPF - CYSN

Flight Track Log - Related Links

Times and Time Zones

All times are in EDT time to prevent confusion due to time zone crossing. See the C-GRJR flight status page for this flight to view local times or setup timezone preferences in your user account.

Time Position Orientation Groundspeed Altitude Reporting Facility
EDT Latitude Longitude Course Direction KTS MPH feet Rate Location/Type
03:55PM 26.2622 -81.7903 North 153 176 6,000  Level Miami Center
03:56PM 26.3056 -81.7950 354° North 156 180 8,100 1,800 Climbing Miami Center
03:57PM 26.3567 -81.7939 North 167 192 9,800 1,560 Climbing Miami Center
03:58PM 26.4081 -81.7872 North 186 214 11,400 1,800 Climbing Miami Center
03:59PM 26.9876 -81.6145 24° Northeast  Level FlightAware Approximate
04:00PM 27.0856 -81.5914 North  Level FlightAware Approximate
04:00PM 26.5799 -81.7471 11° North  Level FlightAware Approximate
04:00PM 26.5125 -81.7697 11° North 192 221 15,400  Level Miami Center
04:01PM 26.5817 -81.7558 10° North 209 241 17,600 1,620 Climbing Miami Center
04:06PM 26.9111 -81.6858 12° North 254 292 25,700 1,560 Climbing Miami Center
04:08PM 27.0781 -81.6503 13° North 270 311 28,900 1,140 Climbing Miami Center
04:13PM 27.4847 -81.6158 12° North 293 337 34,000 960 Climbing Miami Center
04:14PM 27.5697 -81.6131 North 295 339 34,900 780 Climbing Miami Center
04:15PM 27.6564 -81.6092 North 295 339 35,700 720 Climbing Miami Center
04:16PM 27.7433 -81.6064 North 295 339 36,400 600 Climbing Miami Center
04:17PM 27.8550 -81.4790 10° North  Level FlightAware Approximate
04:17PM 27.8267 -81.6031 North 294 338 37,000  Level Miami Center
04:18PM 27.9543 -81.4580 12° North  Level FlightAware Approximate
04:18PM 27.9108 -81.6000 North 301 346 37,000  Level Miami Center
04:20PM 28.1006 -81.5931 36° Northeast 346 398 37,000  Level Miami Center
04:23PM 28.3078 -81.5850 North 373 429 37,000  Level Miami Center
04:24PM 28.4378 -81.5811 North 385 443 37,000  Level Miami Center
04:25PM 28.5475 -81.5778 North 389 448 37,000  Level Miami Center
04:28PM 28.8903 -81.5647 North 398 458 37,000  Level Jacksonville Center
04:31PM 29.2267 -81.5531 North 403 464 37,000  Level Miami Center
04:33PM 29.4683 -81.5433 North 402 463 37,000  Level Miami Center
04:34PM 29.5600 -81.5436 360° North 399 459 37,000  Level Jacksonville Center
04:35PM 29.6706 -81.5372 North 399 459 37,000  Level Jacksonville Center
04:36PM 29.7811 -81.5261 North 399 459 37,000  Level Jacksonville Center
04:37PM 29.8897 -81.5294 358° North 394 453 37,000  Level Jacksonville Center
04:38PM 29.9961 -81.5231 North 389 448 37,000  Level Jacksonville Center
04:41PM 30.3300 -81.5111 North 384 442 37,000  Level Jacksonville Center
04:42PM 30.4406 -81.4975 North 384 442 37,000  Level Jacksonville Center
04:43PM 30.5489 -81.4839 North 384 442 37,000  Level Jacksonville Center
04:44PM 30.6575 -81.4725 North 384 442 37,000  Level Jacksonville Center
04:47PM 30.9786 -81.4386 North 384 442 37,000  Level Jacksonville Center
04:48PM 31.0850 -81.4275 North 384 442 37,000  Level Jacksonville Center
04:49PM 31.1933 -81.4158 North 384 442 37,000  Level Jacksonville Center
04:50PM 31.2975 -81.4047 North 384 442 37,000  Level Jacksonville Center
04:51PM 31.3936 -81.3908 North 384 442 37,000  Level Jacksonville Center
04:52PM 31.5081 -81.3792 North 384 442 37,000  Level Jacksonville Center
04:53PM 31.6019 -81.3681 North 379 436 37,000  Level Jacksonville Center
04:54PM 31.7167 -81.3564 North 379 436 37,000  Level Jacksonville Center
04:55PM 31.8208 -81.3450 North 374 430 37,000  Level Jacksonville Center
04:56PM 31.9294 -81.3333 North 369 425 37,000  Level Jacksonville Center
04:58PM 32.1378 -81.3075 North 374 430 37,000  Level Jacksonville Center
05:01PM 32.4547 -81.2750 North 374 430 37,000  Level Jacksonville Center
05:02PM 32.5464 -81.2636 North 374 430 37,000  Level Jacksonville Center
05:03PM 32.6631 -81.2442 North 374 430 37,000  Level Jacksonville Center
05:04PM 32.7567 -81.2253 10° North 369 425 37,000  Level Jacksonville Center
05:07PM 33.0714 -81.1722 North 369 425 37,000  Level Jacksonville Center
05:08PM 33.1775 -81.1553 North 374 430 37,000  Level Jacksonville Center
05:09PM 33.2836 -81.1358 North 379 436 37,000  Level Jacksonville Center
05:10PM 33.3878 -81.1189 North 379 436 37,000  Level Jacksonville Center
05:11PM 33.4939 -81.1019 North 379 436 37,000  Level Jacksonville Center
05:13PM 33.7064 -81.0650 North 379 436 37,000  Level Jacksonville Center
05:14PM 33.8125 -81.0428 10° North 384 442 37,000  Level Jacksonville Center
05:16PM 34.0614 -80.9997 North 381 438 37,000  Level Atlanta Center
05:18PM 34.2650 -80.9622 North 376 433 37,000  Level Atlanta Center
05:19PM 34.3689 -80.9458 North 376 433 37,000  Level Atlanta Center
05:21PM 34.5747 -80.9131 11° North 370 426 37,000  Level Atlanta Center
05:24PM 34.8819 -80.8561 North 370 426 37,000  Level Atlanta Center
05:25PM 34.9858 -80.8344 10° North 370 426 37,000  Level Atlanta Center
05:27PM 35.1933 -80.7958 North 370 426 37,000  Level Atlanta Center
05:28PM 35.2953 -80.7767 North 370 426 37,000  Level Atlanta Center
05:31PM 35.6086 -80.7206 North 370 426 37,000  Level Atlanta Center
05:32PM 35.7147 -80.7011 North 370 426 37,000  Level Atlanta Center
05:33PM 35.8183 -80.6789 10° North 375 432 37,000  Level Atlanta Center
05:35PM 36.0300 -80.6419 North 375 432 37,000  Level Atlanta Center
05:36PM 36.1358 -80.6219 North 375 432 37,000  Level Atlanta Center
05:37PM 36.2375 -80.6047 North 375 432 37,000  Level Atlanta Center
05:38PM 36.3414 -80.5850 North 370 426 37,000  Level Atlanta Center
05:40PM 36.5364 -80.5481 10° North 370 426 37,000  Level Atlanta Center
05:41PM 36.6378 -80.5281 North 370 426 37,000  Level Atlanta Center
05:43PM 36.8233 -80.4961 North 372 428 37,000  Level Washington Center
05:44PM 36.9389 -80.4747 North 372 428 37,000  Level Washington Center
05:46PM 37.1472 -80.4358 North 372 428 37,000  Level Washington Center
05:47PM 37.2503 -80.4164 North 372 428 37,000  Level Washington Center
05:48PM 37.3428 -80.3986 North 372 428 37,000  Level Washington Center
05:51PM 37.6558 -80.3397 11° North 372 428 37,000  Level Washington Center
05:53PM 37.8722 -80.2983 North 372 428 37,000  Level Washington Center
05:55PM 38.0761 -80.2583 North 372 428 37,000  Level Washington Center
05:56PM 38.2242 -80.2239 10° North 412 474 37,000  Level Cleveland Center
05:58PM 38.3725 -80.2000 North 372 428 37,000  Level Washington Center
05:59PM 38.4756 -80.1800 North 367 422 37,000  Level Washington Center
06:01PM 38.6897 -80.1400 North 372 428 37,000  Level Washington Center
06:03PM 38.8531 -80.0983 11° North 369 425 37,000  Level Cleveland Center
06:04PM 38.9547 -80.0781 North 369 425 37,000  Level Cleveland Center
06:06PM 39.1775 -80.0339 North 369 425 37,000  Level Cleveland Center
06:07PM 39.2783 -80.0136 North 369 425 37,000  Level Cleveland Center
06:08PM 39.3797 -79.9944 North 369 425 37,000  Level Cleveland Center
06:10PM 39.5800 -79.9517 North 369 425 37,000  Level Cleveland Center
06:12PM 39.8036 -79.9056 North 369 425 37,000  Level Cleveland Center
06:13PM 39.9019 -79.8847 North 368 423 37,000  Level Cleveland Center
06:14PM 40.0033 -79.8644 North 369 425 37,000  Level Cleveland Center
06:15PM 40.1053 -79.8436 North 369 425 37,000 -60 Level Cleveland Center
06:16PM 40.2272 -79.8186 North 369 425 36,900 -540 Descending Cleveland Center
06:18PM 40.4369 -79.7750 North 387 445 35,400 -720 Descending Cleveland Center
06:19PM 40.5372 -79.7533 North 375 432 34,700 -960 Descending Cleveland Center
06:20PM 40.6583 -79.7272 North 370 426 33,500 -900 Descending Cleveland Center
06:21PM 40.7622 -79.7058 North 376 433 32,900 -1,680 Descending Cleveland Center
06:22PM 40.8642 -79.6847 North 376 433 30,100 -2,220 Descending Cleveland Center
06:24PM 40.9810 -79.6538 11° North  Level FlightAware Approximate
06:24PM 41.0597 -79.6419 11° North 352 405 26,100  Level Cleveland Center
06:25PM 41.1722 -79.6189 North 346 398 25,100 -600 Descending Cleveland Center
06:27PM 41.3561 -79.5792 North 339 390 24,300 -420 Descending Cleveland Center
06:28PM 41.4539 -79.5575 North 338 389 23,800 -540 Descending Cleveland Center
06:29PM 41.5450 -79.5372 North 338 389 23,200 -660 Descending Cleveland Center
06:31PM 41.6353 -79.5175 North 331 381 22,500 -600 Descending Cleveland Center
06:32PM 41.7244 -79.4989 North 330 380 22,000 -480 Descending Cleveland Center
06:33PM 41.8306 -79.4758 North 324 373 21,600 -480 Descending Cleveland Center
06:34PM 41.9178 -79.4561 10° North 321 369 21,100 -420 Descending Cleveland Center
06:35PM 42.0047 -79.4375 North 320 368 20,800 -360 Descending Cleveland Center
06:36PM 42.0906 -79.4181 10° North 316 364 20,400 -480 Descending Cleveland Center
06:37PM 42.1769 -79.3994 North 316 364 19,900 -1,020 Descending Cleveland Center
06:39PM 42.3636 -79.3586 North 309 356 17,400 -1,320 Descending Cleveland Center
06:40PM 42.4447 -79.3411 North 299 344 15,900 -1,500 Descending Cleveland Center
06:41PM 42.5183 -79.3239 10° North 294 338 14,300 -1,620 Descending Cleveland Center
06:43PM 42.6892 -79.2850 North 285 328 11,000 -1,560 Descending Cleveland Center
06:45PM 42.8500 -79.2500 North 273 314 7,800 -1,500 Descending Buffalo TRACON
06:46PM 42.9233 -79.2306 11° North 272 313 6,400 -1,440 Descending Cleveland Center
06:47PM 42.9931 -79.2028 16° North 253 291 4,900 -1,860 Descending Cleveland Center
06:48PM 43.0600 -79.1761 16° North 257 296 2,600 -1,440 Descending Cleveland Center
06:49PM 43.1306 -79.1506 15° North 255 293 2,000 -360 Descending Cleveland Center
06:50PM 43.1667 -79.1000 46° Northeast 220 253 2,000 -300 Level Toronto Center
06:51PM 43.2000 -79.1000 360° North 160 184 1,500 -540 Descending Toronto Center